sensor_id;sensor_type;location;lat;lon;timestamp;temperature;humidity
42095;DHT22;27753;55.724;37.612;2023-02-19T00:01:25;-5.40;96.00
42095;DHT22;27753;55.724;37.612;2023-02-19T00:03:54;-5.40;96.10
42095;DHT22;27753;55.724;37.612;2023-02-19T00:06:22;-5.40;96.10
42095;DHT22;27753;55.724;37.612;2023-02-19T00:08:48;-5.40;96.00
42095;DHT22;27753;55.724;37.612;2023-02-19T00:11:20;-5.40;96.20
42095;DHT22;27753;55.724;37.612;2023-02-19T00:13:48;-5.40;96.20
42095;DHT22;27753;55.724;37.612;2023-02-19T00:16:18;-5.40;96.30
42095;DHT22;27753;55.724;37.612;2023-02-19T00:18:44;-5.40;96.30
42095;DHT22;27753;55.724;37.612;2023-02-19T00:21:11;-5.40;96.20
42095;DHT22;27753;55.724;37.612;2023-02-19T00:23:37;-5.50;96.20
42095;DHT22;27753;55.724;37.612;2023-02-19T00:26:05;-5.50;96.20
42095;DHT22;27753;55.724;37.612;2023-02-19T00:28:31;-5.50;96.20
42095;DHT22;27753;55.724;37.612;2023-02-19T00:31:08;-5.50;96.30
42095;DHT22;27753;55.724;37.612;2023-02-19T00:33:35;-5.50;96.20
42095;DHT22;27753;55.724;37.612;2023-02-19T00:36:02;-5.50;96.20
42095;DHT22;27753;55.724;37.612;2023-02-19T00:38:29;-5.50;96.20
42095;DHT22;27753;55.724;37.612;2023-02-19T00:40:57;-5.50;96.40
42095;DHT22;27753;55.724;37.612;2023-02-19T00:43:23;-5.40;96.30
42095;DHT22;27753;55.724;37.612;2023-02-19T00:45:49;-5.40;96.30
42095;DHT22;27753;55.724;37.612;2023-02-19T00:48:18;-5.40;96.30
42095;DHT22;27753;55.724;37.612;2023-02-19T00:50:44;-5.40;96.20
42095;DHT22;27753;55.724;37.612;2023-02-19T00:53:10;-5.40;96.40
42095;DHT22;27753;55.724;37.612;2023-02-19T00:55:36;-5.40;96.30
42095;DHT22;27753;55.724;37.612;2023-02-19T00:58:01;-5.50;96.10
42095;DHT22;27753;55.724;37.612;2023-02-19T01:00:27;-5.50;96.20
42095;DHT22;27753;55.724;37.612;2023-02-19T01:02:53;-5.50;96.30
42095;DHT22;27753;55.724;37.612;2023-02-19T01:05:22;-5.50;96.40
42095;DHT22;27753;55.724;37.612;2023-02-19T01:07:48;-5.40;96.50
42095;DHT22;27753;55.724;37.612;2023-02-19T01:10:17;-5.40;96.50
42095;DHT22;27753;55.724;37.612;2023-02-19T01:12:45;-5.40;96.50
42095;DHT22;27753;55.724;37.612;2023-02-19T01:15:11;-5.30;96.40
42095;DHT22;27753;55.724;37.612;2023-02-19T01:17:37;-5.40;96.30
42095;DHT22;27753;55.724;37.612;2023-02-19T01:20:03;-5.40;96.40
42095;DHT22;27753;55.724;37.612;2023-02-19T01:22:29;-5.40;96.40
42095;DHT22;27753;55.724;37.612;2023-02-19T01:24:55;-5.40;96.50
42095;DHT22;27753;55.724;37.612;2023-02-19T01:27:21;-5.30;96.60
42095;DHT22;27753;55.724;37.612;2023-02-19T01:29:49;-5.40;96.60
42095;DHT22;27753;55.724;37.612;2023-02-19T01:32:15;-5.40;96.70
42095;DHT22;27753;55.724;37.612;2023-02-19T01:34:43;-5.40;96.70
42095;DHT22;27753;55.724;37.612;2023-02-19T01:37:09;-5.40;96.70
42095;DHT22;27753;55.724;37.612;2023-02-19T01:39:37;-5.40;96.70
42095;DHT22;27753;55.724;37.612;2023-02-19T01:42:05;-5.40;96.70
42095;DHT22;27753;55.724;37.612;2023-02-19T01:47:16;-5.40;96.70
42095;DHT22;27753;55.724;37.612;2023-02-19T01:49:52;-5.40;96.80
42095;DHT22;27753;55.724;37.612;2023-02-19T01:52:31;-5.50;96.80
42095;DHT22;27753;55.724;37.612;2023-02-19T01:54:58;-5.50;96.80
42095;DHT22;27753;55.724;37.612;2023-02-19T01:57:29;-5.50;96.80
42095;DHT22;27753;55.724;37.612;2023-02-19T02:00:02;-5.50;96.80
42095;DHT22;27753;55.724;37.612;2023-02-19T02:02:29;-5.50;96.70
42095;DHT22;27753;55.724;37.612;2023-02-19T02:04:56;-5.60;96.80
42095;DHT22;27753;55.724;37.612;2023-02-19T02:07:25;-5.60;96.90
42095;DHT22;27753;55.724;37.612;2023-02-19T02:10:10;-5.60;97.00
42095;DHT22;27753;55.724;37.612;2023-02-19T02:12:46;-5.60;97.00
42095;DHT22;27753;55.724;37.612;2023-02-19T02:15:13;-5.60;97.10
42095;DHT22;27753;55.724;37.612;2023-02-19T02:17:49;-5.50;97.20
42095;DHT22;27753;55.724;37.612;2023-02-19T02:20:52;-5.50;97.10
42095;DHT22;27753;55.724;37.612;2023-02-19T02:23:39;-5.50;97.00
42095;DHT22;27753;55.724;37.612;2023-02-19T02:26:46;-5.60;97.00
42095;DHT22;27753;55.724;37.612;2023-02-19T02:29:30;-5.70;97.00
42095;DHT22;27753;55.724;37.612;2023-02-19T02:32:25;-5.80;97.00
42095;DHT22;27753;55.724;37.612;2023-02-19T02:35:03;-5.80;97.20
42095;DHT22;27753;55.724;37.612;2023-02-19T02:37:33;-5.70;97.10
42095;DHT22;27753;55.724;37.612;2023-02-19T02:40:01;-5.80;97.20
42095;DHT22;27753;55.724;37.612;2023-02-19T02:42:27;-5.70;97.30
42095;DHT22;27753;55.724;37.612;2023-02-19T02:44:54;-5.70;97.20
42095;DHT22;27753;55.724;37.612;2023-02-19T02:47:46;-5.70;97.30
42095;DHT22;27753;55.724;37.612;2023-02-19T02:50:24;-5.80;97.30
42095;DHT22;27753;55.724;37.612;2023-02-19T02:52:55;-5.80;97.40
42095;DHT22;27753;55.724;37.612;2023-02-19T02:55:44;-5.70;97.60
42095;DHT22;27753;55.724;37.612;2023-02-19T02:58:12;-5.70;97.60
42095;DHT22;27753;55.724;37.612;2023-02-19T03:00:42;-5.70;97.80
42095;DHT22;27753;55.724;37.612;2023-02-19T03:03:28;-5.70;97.80
42095;DHT22;27753;55.724;37.612;2023-02-19T03:05:59;-5.70;97.60
42095;DHT22;27753;55.724;37.612;2023-02-19T03:09:13;-5.70;97.70
42095;DHT22;27753;55.724;37.612;2023-02-19T03:11:34;-5.70;97.70
42095;DHT22;27753;55.724;37.612;2023-02-19T03:14:27;-5.60;97.60
42095;DHT22;27753;55.724;37.612;2023-02-19T03:17:32;-5.60;97.60
42095;DHT22;27753;55.724;37.612;2023-02-19T03:20:20;-5.60;97.60
42095;DHT22;27753;55.724;37.612;2023-02-19T03:22:48;-5.50;97.70
42095;DHT22;27753;55.724;37.612;2023-02-19T03:25:24;-5.60;97.70
42095;DHT22;27753;55.724;37.612;2023-02-19T03:28:13;-5.60;97.70
42095;DHT22;27753;55.724;37.612;2023-02-19T03:30:45;-5.50;97.80
42095;DHT22;27753;55.724;37.612;2023-02-19T03:33:18;-5.50;97.80
42095;DHT22;27753;55.724;37.612;2023-02-19T03:35:57;-5.50;97.90
42095;DHT22;27753;55.724;37.612;2023-02-19T03:38:47;-5.50;97.90
42095;DHT22;27753;55.724;37.612;2023-02-19T03:41:31;-5.50;97.90
42095;DHT22;27753;55.724;37.612;2023-02-19T03:44:12;-5.50;98.00
42095;DHT22;27753;55.724;37.612;2023-02-19T03:46:50;-5.50;98.10
42095;DHT22;27753;55.724;37.612;2023-02-19T03:49:28;-5.50;98.20
42095;DHT22;27753;55.724;37.612;2023-02-19T03:52:03;-5.50;98.20
42095;DHT22;27753;55.724;37.612;2023-02-19T03:54:49;-5.50;98.30
42095;DHT22;27753;55.724;37.612;2023-02-19T03:57:34;-5.50;98.40
42095;DHT22;27753;55.724;37.612;2023-02-19T04:00:12;-5.50;98.50
42095;DHT22;27753;55.724;37.612;2023-02-19T04:02:46;-5.40;98.50
42095;DHT22;27753;55.724;37.612;2023-02-19T04:05:36;-5.50;98.40
42095;DHT22;27753;55.724;37.612;2023-02-19T04:08:11;-5.50;98.50
42095;DHT22;27753;55.724;37.612;2023-02-19T04:10:39;-5.50;98.50
42095;DHT22;27753;55.724;37.612;2023-02-19T04:13:14;-5.40;98.40
42095;DHT22;27753;55.724;37.612;2023-02-19T04:15:42;-5.40;98.40
42095;DHT22;27753;55.724;37.612;2023-02-19T04:18:14;-5.40;98.30
42095;DHT22;27753;55.724;37.612;2023-02-19T04:20:45;-5.40;98.30
42095;DHT22;27753;55.724;37.612;2023-02-19T04:23:13;-5.40;98.60
42095;DHT22;27753;55.724;37.612;2023-02-19T04:25:43;-5.40;98.30
42095;DHT22;27753;55.724;37.612;2023-02-19T04:28:09;-5.50;98.50
42095;DHT22;27753;55.724;37.612;2023-02-19T04:30:37;-5.50;98.50
42095;DHT22;27753;55.724;37.612;2023-02-19T04:33:03;-5.50;98.60
42095;DHT22;27753;55.724;37.612;2023-02-19T04:35:29;-5.40;98.60
42095;DHT22;27753;55.724;37.612;2023-02-19T04:37:55;-5.50;98.60
42095;DHT22;27753;55.724;37.612;2023-02-19T04:40:21;-5.50;98.60
42095;DHT22;27753;55.724;37.612;2023-02-19T04:42:47;-5.50;98.70
42095;DHT22;27753;55.724;37.612;2023-02-19T04:45:13;-5.50;98.80
42095;DHT22;27753;55.724;37.612;2023-02-19T04:47:38;-5.50;98.80
42095;DHT22;27753;55.724;37.612;2023-02-19T04:50:04;-5.50;99.10
42095;DHT22;27753;55.724;37.612;2023-02-19T04:52:30;-5.40;98.90
42095;DHT22;27753;55.724;37.612;2023-02-19T04:54:57;-5.40;98.90
42095;DHT22;27753;55.724;37.612;2023-02-19T04:57:23;-5.50;98.90
42095;DHT22;27753;55.724;37.612;2023-02-19T04:59:49;-5.50;98.90
42095;DHT22;27753;55.724;37.612;2023-02-19T05:02:15;-5.50;99.00
42095;DHT22;27753;55.724;37.612;2023-02-19T05:04:41;-5.50;99.10
42095;DHT22;27753;55.724;37.612;2023-02-19T05:07:07;-5.50;99.40
42095;DHT22;27753;55.724;37.612;2023-02-19T05:09:33;-5.50;99.10
42095;DHT22;27753;55.724;37.612;2023-02-19T05:11:59;-5.40;99.40
42095;DHT22;27753;55.724;37.612;2023-02-19T05:14:24;-5.40;99.10
42095;DHT22;27753;55.724;37.612;2023-02-19T05:16:50;-5.40;99.00
42095;DHT22;27753;55.724;37.612;2023-02-19T05:19:16;-5.50;99.00
42095;DHT22;27753;55.724;37.612;2023-02-19T05:21:42;-5.40;99.00
42095;DHT22;27753;55.724;37.612;2023-02-19T05:24:08;-5.40;99.10
42095;DHT22;27753;55.724;37.612;2023-02-19T05:26:36;-5.40;99.10
42095;DHT22;27753;55.724;37.612;2023-02-19T05:29:03;-5.40;99.00
42095;DHT22;27753;55.724;37.612;2023-02-19T05:31:29;-5.40;99.00
42095;DHT22;27753;55.724;37.612;2023-02-19T05:33:55;-5.30;99.00
42095;DHT22;27753;55.724;37.612;2023-02-19T05:36:22;-5.30;99.10
42095;DHT22;27753;55.724;37.612;2023-02-19T05:38:51;-5.30;99.20
42095;DHT22;27753;55.724;37.612;2023-02-19T05:41:21;-5.40;99.30
42095;DHT22;27753;55.724;37.612;2023-02-19T05:43:48;-5.40;99.50
42095;DHT22;27753;55.724;37.612;2023-02-19T05:46:16;-5.40;99.60
42095;DHT22;27753;55.724;37.612;2023-02-19T05:48:44;-5.30;99.60
42095;DHT22;27753;55.724;37.612;2023-02-19T05:51:12;-5.30;99.70
42095;DHT22;27753;55.724;37.612;2023-02-19T05:53:39;-5.20;99.70
42095;DHT22;27753;55.724;37.612;2023-02-19T05:56:32;-5.10;99.70
42095;DHT22;27753;55.724;37.612;2023-02-19T05:59:01;-5.10;99.70
42095;DHT22;27753;55.724;37.612;2023-02-19T06:01:29;-5.10;99.60
42095;DHT22;27753;55.724;37.612;2023-02-19T06:03:56;-5.10;99.70
42095;DHT22;27753;55.724;37.612;2023-02-19T06:06:22;-5.00;99.70
42095;DHT22;27753;55.724;37.612;2023-02-19T06:08:49;-5.00;99.60
42095;DHT22;27753;55.724;37.612;2023-02-19T06:11:16;-4.90;99.60
42095;DHT22;27753;55.724;37.612;2023-02-19T06:13:42;-4.90;99.50
42095;DHT22;27753;55.724;37.612;2023-02-19T06:16:08;-4.90;99.40
42095;DHT22;27753;55.724;37.612;2023-02-19T06:18:34;-4.90;99.40
42095;DHT22;27753;55.724;37.612;2023-02-19T06:21:04;-4.90;99.50
42095;DHT22;27753;55.724;37.612;2023-02-19T06:23:30;-4.90;99.40
42095;DHT22;27753;55.724;37.612;2023-02-19T06:26:17;-4.80;99.40
42095;DHT22;27753;55.724;37.612;2023-02-19T06:28:44;-4.80;99.50
42095;DHT22;27753;55.724;37.612;2023-02-19T06:31:11;-4.80;99.40
42095;DHT22;27753;55.724;37.612;2023-02-19T06:33:38;-4.80;99.40
42095;DHT22;27753;55.724;37.612;2023-02-19T06:36:06;-4.80;99.40
42095;DHT22;27753;55.724;37.612;2023-02-19T06:38:32;-4.80;99.40
42095;DHT22;27753;55.724;37.612;2023-02-19T06:41:06;-4.70;99.50
42095;DHT22;27753;55.724;37.612;2023-02-19T06:43:33;-4.60;99.50
42095;DHT22;27753;55.724;37.612;2023-02-19T06:45:59;-4.60;99.50
42095;DHT22;27753;55.724;37.612;2023-02-19T06:48:27;-4.60;99.50
42095;DHT22;27753;55.724;37.612;2023-02-19T06:50:53;-4.50;99.60
42095;DHT22;27753;55.724;37.612;2023-02-19T06:53:20;-4.50;99.60
42095;DHT22;27753;55.724;37.612;2023-02-19T06:56:00;-4.40;99.50
42095;DHT22;27753;55.724;37.612;2023-02-19T06:58:27;-4.50;99.60
42095;DHT22;27753;55.724;37.612;2023-02-19T07:00:53;-4.40;99.40
42095;DHT22;27753;55.724;37.612;2023-02-19T07:03:20;-4.40;99.30
42095;DHT22;27753;55.724;37.612;2023-02-19T07:05:46;-4.30;99.30
42095;DHT22;27753;55.724;37.612;2023-02-19T07:08:12;-4.30;99.30
42095;DHT22;27753;55.724;37.612;2023-02-19T07:10:39;-4.20;99.30
42095;DHT22;27753;55.724;37.612;2023-02-19T07:13:05;-4.20;99.30
42095;DHT22;27753;55.724;37.612;2023-02-19T07:15:31;-4.10;99.40
42095;DHT22;27753;55.724;37.612;2023-02-19T07:18:00;-4.10;99.30
42095;DHT22;27753;55.724;37.612;2023-02-19T07:20:26;-4.10;99.30
42095;DHT22;27753;55.724;37.612;2023-02-19T07:22:52;-4.10;99.30
42095;DHT22;27753;55.724;37.612;2023-02-19T07:25:18;-4.10;99.10
42095;DHT22;27753;55.724;37.612;2023-02-19T07:27:47;-4.00;99.00
42095;DHT22;27753;55.724;37.612;2023-02-19T07:30:16;-4.00;98.80
42095;DHT22;27753;55.724;37.612;2023-02-19T07:32:43;-4.00;98.40
42095;DHT22;27753;55.724;37.612;2023-02-19T07:35:10;-4.00;98.30
42095;DHT22;27753;55.724;37.612;2023-02-19T07:37:51;-4.10;98.30
42095;DHT22;27753;55.724;37.612;2023-02-19T07:40:23;-4.10;98.20
42095;DHT22;27753;55.724;37.612;2023-02-19T07:42:49;-4.20;98.00
42095;DHT22;27753;55.724;37.612;2023-02-19T07:45:15;-4.30;98.10
42095;DHT22;27753;55.724;37.612;2023-02-19T07:47:42;-4.40;98.20
42095;DHT22;27753;55.724;37.612;2023-02-19T07:50:11;-4.30;98.20
42095;DHT22;27753;55.724;37.612;2023-02-19T07:52:40;-4.30;98.10
42095;DHT22;27753;55.724;37.612;2023-02-19T07:55:09;-4.30;98.20
42095;DHT22;27753;55.724;37.612;2023-02-19T07:57:35;-4.20;98.40
42095;DHT22;27753;55.724;37.612;2023-02-19T08:00:01;-4.10;98.70
42095;DHT22;27753;55.724;37.612;2023-02-19T08:02:30;-4.10;98.70
42095;DHT22;27753;55.724;37.612;2023-02-19T08:05:15;-4.10;98.80
42095;DHT22;27753;55.724;37.612;2023-02-19T08:07:41;-4.10;99.10
42095;DHT22;27753;55.724;37.612;2023-02-19T08:10:09;-4.00;99.20
42095;DHT22;27753;55.724;37.612;2023-02-19T08:12:55;-3.90;99.30
42095;DHT22;27753;55.724;37.612;2023-02-19T08:15:40;-3.80;99.00
42095;DHT22;27753;55.724;37.612;2023-02-19T08:18:08;-3.80;98.90
42095;DHT22;27753;55.724;37.612;2023-02-19T08:20:37;-3.80;99.00
42095;DHT22;27753;55.724;37.612;2023-02-19T08:23:03;-3.70;98.50
42095;DHT22;27753;55.724;37.612;2023-02-19T08:25:29;-3.70;98.40
42095;DHT22;27753;55.724;37.612;2023-02-19T08:27:55;-3.60;98.30
42095;DHT22;27753;55.724;37.612;2023-02-19T08:30:42;-3.60;98.40
42095;DHT22;27753;55.724;37.612;2023-02-19T08:33:20;-3.50;98.10
42095;DHT22;27753;55.724;37.612;2023-02-19T08:35:46;-3.40;97.70
42095;DHT22;27753;55.724;37.612;2023-02-19T08:38:13;-3.30;97.80
42095;DHT22;27753;55.724;37.612;2023-02-19T08:40:41;-3.30;97.90
42095;DHT22;27753;55.724;37.612;2023-02-19T08:43:12;-3.30;97.90
42095;DHT22;27753;55.724;37.612;2023-02-19T08:45:40;-3.20;98.00
42095;DHT22;27753;55.724;37.612;2023-02-19T08:48:06;-3.30;98.00
42095;DHT22;27753;55.724;37.612;2023-02-19T08:50:33;-3.30;98.20
42095;DHT22;27753;55.724;37.612;2023-02-19T08:52:59;-3.40;98.30
42095;DHT22;27753;55.724;37.612;2023-02-19T08:55:26;-3.40;98.40
42095;DHT22;27753;55.724;37.612;2023-02-19T08:57:52;-3.40;98.40
42095;DHT22;27753;55.724;37.612;2023-02-19T09:00:18;-3.50;98.50
42095;DHT22;27753;55.724;37.612;2023-02-19T09:02:46;-3.40;98.50
42095;DHT22;27753;55.724;37.612;2023-02-19T09:05:12;-3.50;98.30
42095;DHT22;27753;55.724;37.612;2023-02-19T09:07:39;-3.40;98.00
42095;DHT22;27753;55.724;37.612;2023-02-19T09:10:06;-3.40;98.00
42095;DHT22;27753;55.724;37.612;2023-02-19T09:12:32;-3.40;98.00
42095;DHT22;27753;55.724;37.612;2023-02-19T09:15:01;-3.40;98.20
42095;DHT22;27753;55.724;37.612;2023-02-19T09:17:29;-3.40;98.60
42095;DHT22;27753;55.724;37.612;2023-02-19T09:19:55;-3.50;98.70
42095;DHT22;27753;55.724;37.612;2023-02-19T09:22:21;-3.50;98.80
42095;DHT22;27753;55.724;37.612;2023-02-19T09:24:47;-3.50;98.60
42095;DHT22;27753;55.724;37.612;2023-02-19T09:27:17;-3.50;98.60
42095;DHT22;27753;55.724;37.612;2023-02-19T09:29:44;-3.50;98.70
42095;DHT22;27753;55.724;37.612;2023-02-19T09:32:10;-3.50;98.70
42095;DHT22;27753;55.724;37.612;2023-02-19T09:34:36;-3.50;98.80
42095;DHT22;27753;55.724;37.612;2023-02-19T09:37:04;-3.50;98.90
42095;DHT22;27753;55.724;37.612;2023-02-19T09:39:31;-3.50;98.90
42095;DHT22;27753;55.724;37.612;2023-02-19T09:42:02;-3.50;98.80
42095;DHT22;27753;55.724;37.612;2023-02-19T09:44:36;-3.40;98.80
42095;DHT22;27753;55.724;37.612;2023-02-19T09:47:10;-3.30;98.80
42095;DHT22;27753;55.724;37.612;2023-02-19T09:49:42;-3.30;98.70
42095;DHT22;27753;55.724;37.612;2023-02-19T09:52:50;-3.20;98.40
42095;DHT22;27753;55.724;37.612;2023-02-19T09:55:33;-3.00;98.20
42095;DHT22;27753;55.724;37.612;2023-02-19T09:58:15;-2.90;98.10
42095;DHT22;27753;55.724;37.612;2023-02-19T10:00:42;-2.90;97.90
42095;DHT22;27753;55.724;37.612;2023-02-19T10:03:24;-2.80;97.50
42095;DHT22;27753;55.724;37.612;2023-02-19T10:05:56;-2.80;97.10
42095;DHT22;27753;55.724;37.612;2023-02-19T10:08:24;-2.80;96.90
42095;DHT22;27753;55.724;37.612;2023-02-19T10:10:50;-2.80;97.00
42095;DHT22;27753;55.724;37.612;2023-02-19T10:13:21;-2.80;96.90
42095;DHT22;27753;55.724;37.612;2023-02-19T10:15:53;-2.70;97.00
42095;DHT22;27753;55.724;37.612;2023-02-19T10:18:27;-2.70;97.50
42095;DHT22;27753;55.724;37.612;2023-02-19T10:20:55;-2.80;97.60
42095;DHT22;27753;55.724;37.612;2023-02-19T10:23:21;-2.90;98.00
42095;DHT22;27753;55.724;37.612;2023-02-19T10:25:56;-2.90;98.10
42095;DHT22;27753;55.724;37.612;2023-02-19T10:28:30;-3.00;98.10
42095;DHT22;27753;55.724;37.612;2023-02-19T10:31:00;-2.90;98.00
42095;DHT22;27753;55.724;37.612;2023-02-19T10:33:27;-2.90;98.20
42095;DHT22;27753;55.724;37.612;2023-02-19T10:35:57;-2.90;98.20
42095;DHT22;27753;55.724;37.612;2023-02-19T10:38:30;-2.90;98.00
42095;DHT22;27753;55.724;37.612;2023-02-19T10:41:12;-2.80;98.00
42095;DHT22;27753;55.724;37.612;2023-02-19T10:43:49;-2.70;98.10
42095;DHT22;27753;55.724;37.612;2023-02-19T10:46:41;-2.60;98.30
42095;DHT22;27753;55.724;37.612;2023-02-19T10:49:20;-2.60;98.20
42095;DHT22;27753;55.724;37.612;2023-02-19T10:51:48;-2.60;97.90
42095;DHT22;27753;55.724;37.612;2023-02-19T10:54:18;-2.60;97.50
42095;DHT22;27753;55.724;37.612;2023-02-19T10:56:44;-2.60;97.90
42095;DHT22;27753;55.724;37.612;2023-02-19T10:59:28;-2.60;97.90
42095;DHT22;27753;55.724;37.612;2023-02-19T11:01:59;-2.60;97.80
42095;DHT22;27753;55.724;37.612;2023-02-19T11:04:27;-2.70;97.90
42095;DHT22;27753;55.724;37.612;2023-02-19T11:06:54;-2.70;98.10
42095;DHT22;27753;55.724;37.612;2023-02-19T11:11:51;-2.60;98.00
42095;DHT22;27753;55.724;37.612;2023-02-19T11:14:20;-2.60;98.10
42095;DHT22;27753;55.724;37.612;2023-02-19T11:16:58;-2.50;98.30
42095;DHT22;27753;55.724;37.612;2023-02-19T11:19:39;-2.40;98.60
42095;DHT22;27753;55.724;37.612;2023-02-19T11:22:38;-2.20;98.70
42095;DHT22;27753;55.724;37.612;2023-02-19T11:30:43;-1.80;97.40
42095;DHT22;27753;55.724;37.612;2023-02-19T11:35:45;-1.90;97.40
42095;DHT22;27753;55.724;37.612;2023-02-19T11:38:14;-2.00;97.60
42095;DHT22;27753;55.724;37.612;2023-02-19T11:49:39;-2.50;97.70
42095;DHT22;27753;55.724;37.612;2023-02-19T11:55:11;-2.70;98.00
42095;DHT22;27753;55.724;37.612;2023-02-19T11:57:57;-2.80;98.10
42095;DHT22;27753;55.724;37.612;2023-02-19T12:00:40;-2.90;98.00
42095;DHT22;27753;55.724;37.612;2023-02-19T12:06:22;-2.90;98.00
42095;DHT22;27753;55.724;37.612;2023-02-19T12:14:38;-2.80;97.50
42095;DHT22;27753;55.724;37.612;2023-02-19T12:22:52;-2.70;96.90
42095;DHT22;27753;55.724;37.612;2023-02-19T12:25:43;-2.70;96.90
42095;DHT22;27753;55.724;37.612;2023-02-19T12:34:24;-2.90;97.50
42095;DHT22;27753;55.724;37.612;2023-02-19T12:45:25;-2.80;97.30
42095;DHT22;27753;55.724;37.612;2023-02-19T12:48:17;-2.80;97.30
42095;DHT22;27753;55.724;37.612;2023-02-19T12:50:48;-2.80;97.10
42095;DHT22;27753;55.724;37.612;2023-02-19T12:53:43;-2.80;97.00
42095;DHT22;27753;55.724;37.612;2023-02-19T12:56:35;-2.90;96.90
42095;DHT22;27753;55.724;37.612;2023-02-19T12:59:14;-2.90;97.30
42095;DHT22;27753;55.724;37.612;2023-02-19T13:02:15;-3.00;97.20
42095;DHT22;27753;55.724;37.612;2023-02-19T13:07:57;-3.10;97.40
42095;DHT22;27753;55.724;37.612;2023-02-19T13:10:27;-3.10;97.60
42095;DHT22;27753;55.724;37.612;2023-02-19T13:12:59;-3.20;97.50
42095;DHT22;27753;55.724;37.612;2023-02-19T13:15:37;-3.20;97.10
42095;DHT22;27753;55.724;37.612;2023-02-19T13:18:15;-3.20;97.50
42095;DHT22;27753;55.724;37.612;2023-02-19T13:20:43;-3.30;97.60
42095;DHT22;27753;55.724;37.612;2023-02-19T13:23:25;-3.30;97.70
42095;DHT22;27753;55.724;37.612;2023-02-19T13:37:12;-3.60;98.60
42095;DHT22;27753;55.724;37.612;2023-02-19T13:39:51;-3.60;98.70
42095;DHT22;27753;55.724;37.612;2023-02-19T13:42:27;-3.60;98.60
42095;DHT22;27753;55.724;37.612;2023-02-19T13:44:56;-3.60;98.80
42095;DHT22;27753;55.724;37.612;2023-02-19T13:50:30;-3.70;98.60
42095;DHT22;27753;55.724;37.612;2023-02-19T13:52:57;-3.70;98.60
42095;DHT22;27753;55.724;37.612;2023-02-19T14:01:07;-3.70;98.50
42095;DHT22;27753;55.724;37.612;2023-02-19T14:06:09;-3.70;98.70
42095;DHT22;27753;55.724;37.612;2023-02-19T14:08:54;-3.80;98.80
42095;DHT22;27753;55.724;37.612;2023-02-19T14:17:26;-3.80;99.00
42095;DHT22;27753;55.724;37.612;2023-02-19T14:28:30;-4.00;99.30
42095;DHT22;27753;55.724;37.612;2023-02-19T14:31:20;-4.00;99.60
42095;DHT22;27753;55.724;37.612;2023-02-19T14:33:50;-4.10;99.70
42095;DHT22;27753;55.724;37.612;2023-02-19T14:36:42;-4.10;99.80
42095;DHT22;27753;55.724;37.612;2023-02-19T14:39:21;-4.10;99.90
42095;DHT22;27753;55.724;37.612;2023-02-19T14:41:55;-4.10;99.80
42095;DHT22;27753;55.724;37.612;2023-02-19T14:44:38;-4.10;99.70
42095;DHT22;27753;55.724;37.612;2023-02-19T14:47:08;-4.10;99.30
42095;DHT22;27753;55.724;37.612;2023-02-19T14:49:45;-4.10;99.30
42095;DHT22;27753;55.724;37.612;2023-02-19T14:52:36;-4.00;99.30
42095;DHT22;27753;55.724;37.612;2023-02-19T14:55:12;-4.10;99.30
42095;DHT22;27753;55.724;37.612;2023-02-19T14:57:43;-4.10;99.40
42095;DHT22;27753;55.724;37.612;2023-02-19T15:02:49;-4.10;99.40
42095;DHT22;27753;55.724;37.612;2023-02-19T15:05:16;-4.10;99.70
42095;DHT22;27753;55.724;37.612;2023-02-19T15:07:43;-4.10;99.40
42095;DHT22;27753;55.724;37.612;2023-02-19T15:10:11;-4.20;99.50
42095;DHT22;27753;55.724;37.612;2023-02-19T15:13:05;-4.20;99.60
42095;DHT22;27753;55.724;37.612;2023-02-19T15:15:35;-4.20;99.60
42095;DHT22;27753;55.724;37.612;2023-02-19T15:18:02;-4.10;99.70
42095;DHT22;27753;55.724;37.612;2023-02-19T15:20:34;-4.20;99.70
42095;DHT22;27753;55.724;37.612;2023-02-19T15:23:04;-4.20;99.80
42095;DHT22;27753;55.724;37.612;2023-02-19T15:25:36;-4.20;99.80
42095;DHT22;27753;55.724;37.612;2023-02-19T15:31:03;-4.30;99.90
42095;DHT22;27753;55.724;37.612;2023-02-19T15:33:32;-4.30;99.90
42095;DHT22;27753;55.724;37.612;2023-02-19T15:36:06;-4.30;99.90
42095;DHT22;27753;55.724;37.612;2023-02-19T15:38:33;-4.40;99.90
42095;DHT22;27753;55.724;37.612;2023-02-19T15:41:00;-4.40;99.90
42095;DHT22;27753;55.724;37.612;2023-02-19T15:43:46;-4.40;99.90
42095;DHT22;27753;55.724;37.612;2023-02-19T15:46:22;-4.40;99.90
42095;DHT22;27753;55.724;37.612;2023-02-19T15:49:02;-4.40;99.90
42095;DHT22;27753;55.724;37.612;2023-02-19T15:51:39;-4.40;99.90
42095;DHT22;27753;55.724;37.612;2023-02-19T15:56:43;-4.40;99.90
42095;DHT22;27753;55.724;37.612;2023-02-19T15:59:15;-4.40;99.90
42095;DHT22;27753;55.724;37.612;2023-02-19T16:01:42;-4.40;99.90
42095;DHT22;27753;55.724;37.612;2023-02-19T16:04:14;-4.40;99.90
42095;DHT22;27753;55.724;37.612;2023-02-19T16:06:54;-4.40;99.90
42095;DHT22;27753;55.724;37.612;2023-02-19T16:09:29;-4.30;99.90
42095;DHT22;27753;55.724;37.612;2023-02-19T16:12:01;-4.30;99.90
42095;DHT22;27753;55.724;37.612;2023-02-19T16:14:33;-4.30;99.90
42095;DHT22;27753;55.724;37.612;2023-02-19T16:17:04;-4.30;99.90
42095;DHT22;27753;55.724;37.612;2023-02-19T16:19:43;-4.30;99.90
42095;DHT22;27753;55.724;37.612;2023-02-19T16:22:11;-4.30;99.90
42095;DHT22;27753;55.724;37.612;2023-02-19T16:24:46;-4.30;99.90
42095;DHT22;27753;55.724;37.612;2023-02-19T16:27:34;-4.30;99.90
42095;DHT22;27753;55.724;37.612;2023-02-19T16:30:08;-4.30;99.90
42095;DHT22;27753;55.724;37.612;2023-02-19T16:32:35;-4.20;99.90
42095;DHT22;27753;55.724;37.612;2023-02-19T16:35:01;-4.20;99.90
42095;DHT22;27753;55.724;37.612;2023-02-19T16:37:55;-4.20;99.90
42095;DHT22;27753;55.724;37.612;2023-02-19T16:41:03;-4.10;99.90
42095;DHT22;27753;55.724;37.612;2023-02-19T16:43:26;-4.20;99.80
42095;DHT22;27753;55.724;37.612;2023-02-19T16:45:53;-4.10;99.80
42095;DHT22;27753;55.724;37.612;2023-02-19T16:48:21;-4.10;99.80
42095;DHT22;27753;55.724;37.612;2023-02-19T16:50:48;-4.10;99.80
42095;DHT22;27753;55.724;37.612;2023-02-19T16:53:23;-4.10;99.80
42095;DHT22;27753;55.724;37.612;2023-02-19T16:55:50;-4.10;99.90
42095;DHT22;27753;55.724;37.612;2023-02-19T16:58:16;-4.10;99.90
42095;DHT22;27753;55.724;37.612;2023-02-19T17:00:43;-4.20;99.90
42095;DHT22;27753;55.724;37.612;2023-02-19T17:03:14;-4.20;99.90
42095;DHT22;27753;55.724;37.612;2023-02-19T17:05:42;-4.20;99.90
42095;DHT22;27753;55.724;37.612;2023-02-19T17:08:38;-4.10;99.90
42095;DHT22;27753;55.724;37.612;2023-02-19T17:11:10;-4.10;99.90
42095;DHT22;27753;55.724;37.612;2023-02-19T17:13:38;-4.10;99.90
42095;DHT22;27753;55.724;37.612;2023-02-19T17:16:04;-4.20;99.90
42095;DHT22;27753;55.724;37.612;2023-02-19T17:18:30;-4.10;99.90
42095;DHT22;27753;55.724;37.612;2023-02-19T17:21:13;-4.10;99.90
42095;DHT22;27753;55.724;37.612;2023-02-19T17:23:40;-4.10;99.90
42095;DHT22;27753;55.724;37.612;2023-02-19T17:26:07;-4.10;99.90
42095;DHT22;27753;55.724;37.612;2023-02-19T17:28:34;-4.10;99.90